createdAt,value
2023-06-28T00:00:43.791Z,20.45
2023-06-28T00:03:12.415Z,20.41
2023-06-28T00:05:39.243Z,20.40
2023-06-28T00:08:06.078Z,20.40
2023-06-28T00:10:32.614Z,20.40
2023-06-28T00:12:59.246Z,20.41
2023-06-28T00:15:25.797Z,20.41
2023-06-28T00:17:53.077Z,20.40
2023-06-28T00:20:19.846Z,20.40
2023-06-28T00:22:46.493Z,20.42
2023-06-28T00:25:13.051Z,20.42
2023-06-28T00:27:39.672Z,20.42
2023-06-28T00:30:06.957Z,20.41
2023-06-28T00:32:33.593Z,20.41
2023-06-28T00:35:00.235Z,20.42
2023-06-28T00:37:26.910Z,20.45
2023-06-28T00:39:53.663Z,20.47
2023-06-28T00:42:20.270Z,20.48
2023-06-28T00:44:46.962Z,20.48
2023-06-28T00:47:14.822Z,20.45
2023-06-28T00:49:43.057Z,20.37
2023-06-28T00:52:11.919Z,20.34
2023-06-28T00:54:39.160Z,20.32
2023-06-28T00:57:06.353Z,20.32
2023-06-28T00:59:33.400Z,20.32
2023-06-28T01:02:00.176Z,20.31
2023-06-28T01:04:26.769Z,20.33
2023-06-28T01:07:00.887Z,20.36
2023-06-28T01:09:29.349Z,20.39
2023-06-28T01:11:57.966Z,20.40
2023-06-28T01:14:25.663Z,20.39
2023-06-28T01:16:56.366Z,20.39
2023-06-28T01:19:25.829Z,20.39
2023-06-28T01:21:56.869Z,20.39
2023-06-28T01:24:24.465Z,20.39
2023-06-28T01:26:53.317Z,20.41
2023-06-28T01:29:22.957Z,20.38
2023-06-28T01:31:53.966Z,20.38
2023-06-28T01:34:23.514Z,20.34
2023-06-28T01:36:53.012Z,20.34
2023-06-28T01:39:20.851Z,20.33
2023-06-28T01:41:48.126Z,20.31
2023-06-28T01:44:15.396Z,20.28
2023-06-28T01:46:42.587Z,20.28
2023-06-28T01:49:09.304Z,20.27
2023-06-28T01:51:36.755Z,20.27
2023-06-28T01:54:04.807Z,20.28
2023-06-28T01:56:31.613Z,20.30
2023-06-28T01:58:58.259Z,20.29
2023-06-28T02:01:25.028Z,20.29
2023-06-28T02:03:51.769Z,20.27
2023-06-28T02:06:19.226Z,20.26
2023-06-28T02:08:45.825Z,20.26
2023-06-28T02:11:12.496Z,20.24
2023-06-28T02:13:39.099Z,20.22
2023-06-28T02:16:05.756Z,20.19
2023-06-28T02:18:32.587Z,20.22
2023-06-28T02:20:59.317Z,20.25
2023-06-28T02:23:25.900Z,20.24
2023-06-28T02:25:52.535Z,20.22
2023-06-28T02:28:20.620Z,20.21
2023-06-28T02:30:47.756Z,20.23
2023-06-28T02:33:14.539Z,20.26
2023-06-28T02:35:41.286Z,20.26
2023-06-28T02:38:07.839Z,20.24
2023-06-28T02:40:35.623Z,20.21
2023-06-28T02:43:02.295Z,20.18
2023-06-28T02:45:28.901Z,20.09
2023-06-28T02:47:55.567Z,20.05
2023-06-28T02:50:22.185Z,20.01
2023-06-28T02:52:48.726Z,19.95
2023-06-28T02:55:15.396Z,19.93
2023-06-28T02:57:41.940Z,19.90
2023-06-28T03:00:09.163Z,19.87
2023-06-28T03:02:35.874Z,19.84
2023-06-28T03:05:02.510Z,19.84
2023-06-28T03:07:29.275Z,19.84
2023-06-28T03:09:55.909Z,19.85
2023-06-28T03:12:22.482Z,19.86
2023-06-28T03:14:50.005Z,19.88
2023-06-28T03:17:18.819Z,19.88
2023-06-28T03:19:45.364Z,19.86
2023-06-28T03:22:12.019Z,19.85
2023-06-28T03:24:38.614Z,19.85
2023-06-28T03:27:05.632Z,19.87
2023-06-28T03:29:32.303Z,19.87
2023-06-28T03:31:58.922Z,19.88
2023-06-28T03:34:25.529Z,19.86
2023-06-28T03:37:02.750Z,19.85
2023-06-28T03:39:31.454Z,19.81
2023-06-28T03:41:58.066Z,19.79
2023-06-28T03:44:24.647Z,19.78
2023-06-28T03:46:51.222Z,19.78
2023-06-28T03:49:17.831Z,19.73
2023-06-28T03:51:44.482Z,19.69
2023-06-28T03:54:11.085Z,19.68
2023-06-28T03:56:37.701Z,19.68
2023-06-28T03:59:04.518Z,19.71
2023-06-28T04:01:31.201Z,19.70
2023-06-28T04:03:57.851Z,19.68
2023-06-28T04:06:24.498Z,19.70
2023-06-28T04:08:51.335Z,19.71
2023-06-28T04:11:17.875Z,19.71
2023-06-28T04:13:44.433Z,19.69
2023-06-28T04:16:11.222Z,19.69
2023-06-28T04:18:37.809Z,19.68
2023-06-28T04:21:04.427Z,19.72
2023-06-28T04:23:31.080Z,19.72
2023-06-28T04:25:59.221Z,19.75
2023-06-28T04:28:26.646Z,19.75
2023-06-28T04:30:53.313Z,19.79
2023-06-28T04:33:23.598Z,19.81
2023-06-28T04:35:53.235Z,19.82
2023-06-28T04:38:21.955Z,19.85
2023-06-28T04:40:48.663Z,19.90
2023-06-28T04:43:15.713Z,19.91
2023-06-28T04:45:42.881Z,19.94
2023-06-28T04:48:09.807Z,19.95
2023-06-28T04:50:38.146Z,19.95
2023-06-28T04:53:07.645Z,19.94
2023-06-28T04:55:36.264Z,19.96
2023-06-28T04:58:04.125Z,19.99
2023-06-28T05:00:31.345Z,20.04
2023-06-28T05:02:59.041Z,20.08
2023-06-28T05:05:26.108Z,20.12
2023-06-28T05:07:54.333Z,20.18
2023-06-28T05:10:22.662Z,20.20
2023-06-28T05:12:51.464Z,20.23
2023-06-28T05:15:18.352Z,20.27
2023-06-28T05:17:45.405Z,20.33
2023-06-28T05:20:13.602Z,20.38
2023-06-28T05:22:49.240Z,20.37
2023-06-28T05:25:16.381Z,20.37
2023-06-28T05:27:43.127Z,20.36
2023-06-28T05:30:10.321Z,20.34
2023-06-28T05:32:37.038Z,20.34
2023-06-28T05:35:06.512Z,20.36
2023-06-28T05:37:33.175Z,20.37
2023-06-28T05:39:59.836Z,20.40
2023-06-28T05:42:26.417Z,20.46
2023-06-28T05:44:52.946Z,20.47
2023-06-28T05:47:20.791Z,20.44
2023-06-28T05:49:47.571Z,20.40
2023-06-28T05:52:14.145Z,20.36
2023-06-28T05:54:40.755Z,20.37
2023-06-28T05:57:07.517Z,20.38
2023-06-28T05:59:34.262Z,20.40
2023-06-28T06:02:00.972Z,20.46
2023-06-28T06:04:27.583Z,20.49
2023-06-28T06:06:54.285Z,20.52
2023-06-28T06:09:21.616Z,20.54
2023-06-28T06:11:48.198Z,20.55
2023-06-28T06:14:14.978Z,20.54
2023-06-28T06:16:41.516Z,20.53
2023-06-28T06:19:08.110Z,20.54
2023-06-28T06:21:34.670Z,20.52
2023-06-28T06:24:02.526Z,20.55
2023-06-28T06:26:29.135Z,20.59
2023-06-28T06:28:55.747Z,20.62
2023-06-28T06:31:22.522Z,20.69
2023-06-28T06:33:49.264Z,20.76
2023-06-28T06:36:16.273Z,20.85
2023-06-28T06:38:42.835Z,20.89
2023-06-28T06:41:09.448Z,20.92
2023-06-28T06:43:36.185Z,20.99
2023-06-28T06:46:02.825Z,21.06
2023-06-28T06:48:29.399Z,21.11
2023-06-28T06:50:55.992Z,21.12
2023-06-28T06:53:22.893Z,21.15
2023-06-28T06:55:49.595Z,21.19
2023-06-28T06:58:16.210Z,21.18
2023-06-28T07:00:43.020Z,21.22
2023-06-28T07:03:09.895Z,21.26
2023-06-28T07:05:36.535Z,21.31
2023-06-28T07:08:03.160Z,21.36
2023-06-28T07:10:29.799Z,21.38
2023-06-28T07:12:56.459Z,21.38
2023-06-28T07:15:23.252Z,21.38
2023-06-28T07:17:52.200Z,21.38
2023-06-28T07:20:19.028Z,21.38
2023-06-28T07:22:45.651Z,21.40
2023-06-28T07:25:12.677Z,21.47
2023-06-28T07:27:39.453Z,21.55
2023-06-28T07:30:08.457Z,21.64
2023-06-28T07:32:35.460Z,21.67
2023-06-28T07:35:02.146Z,21.80
2023-06-28T07:37:28.832Z,21.85
2023-06-28T07:39:55.411Z,21.88
2023-06-28T07:42:22.025Z,21.89
2023-06-28T07:44:48.664Z,21.94
2023-06-28T07:47:15.341Z,22.04
2023-06-28T07:49:42.021Z,22.09
2023-06-28T07:52:09.339Z,22.08
2023-06-28T07:54:36.294Z,22.15
2023-06-28T07:57:03.091Z,22.25
2023-06-28T07:59:29.741Z,22.36
2023-06-28T08:01:56.898Z,22.40
2023-06-28T08:04:24.243Z,22.50
2023-06-28T08:06:51.012Z,22.61
2023-06-28T08:09:17.893Z,22.74
2023-06-28T08:11:44.550Z,22.86
2023-06-28T08:14:11.208Z,22.92
2023-06-28T08:16:37.789Z,22.96
2023-06-28T08:19:04.401Z,23.00
2023-06-28T08:21:31.015Z,23.06
2023-06-28T08:23:58.029Z,23.17
2023-06-28T08:26:24.661Z,23.25
2023-06-28T08:28:59.992Z,23.29
2023-06-28T08:31:27.522Z,23.32
2023-06-28T08:33:54.246Z,23.26
2023-06-28T08:36:20.839Z,23.26
2023-06-28T08:38:47.561Z,23.35
2023-06-28T08:41:16.886Z,23.37
2023-06-28T08:43:49.524Z,23.32
2023-06-28T08:46:16.298Z,23.36
2023-06-28T08:48:45.018Z,23.52
2023-06-28T08:51:11.735Z,23.65
2023-06-28T08:53:39.045Z,23.69
2023-06-28T08:56:06.012Z,23.75
2023-06-28T08:58:34.264Z,23.84
2023-06-28T09:01:01.117Z,23.92
2023-06-28T09:03:30.822Z,23.94
2023-06-28T09:05:57.512Z,24.02
2023-06-28T09:08:24.419Z,24.15
2023-06-28T09:10:51.129Z,24.29
2023-06-28T09:13:20.942Z,24.46
2023-06-28T09:15:48.784Z,24.65
2023-06-28T09:18:16.662Z,24.77
2023-06-28T09:20:51.252Z,24.76
2023-06-28T09:23:29.101Z,24.79
2023-06-28T09:25:56.465Z,24.80
2023-06-28T09:28:24.925Z,24.86
2023-06-28T09:30:57.978Z,25.07
2023-06-28T09:33:25.258Z,25.20
2023-06-28T09:36:03.382Z,25.33
2023-06-28T09:38:30.097Z,25.34
2023-06-28T09:40:58.115Z,25.34
2023-06-28T09:43:25.363Z,25.15
2023-06-28T09:45:55.360Z,25.06
2023-06-28T09:48:26.709Z,25.14
2023-06-28T09:50:53.563Z,25.38
2023-06-28T09:53:22.617Z,25.57
2023-06-28T09:55:51.614Z,25.77
2023-06-28T09:58:19.864Z,25.84
2023-06-28T10:00:48.449Z,25.83
2023-06-28T10:03:21.611Z,25.69
2023-06-28T10:05:49.466Z,25.64
2023-06-28T10:08:17.481Z,25.72
2023-06-28T10:10:46.008Z,25.92
2023-06-28T10:13:31.681Z,26.11
2023-06-28T10:16:06.530Z,26.26
2023-06-28T10:18:33.261Z,26.42
2023-06-28T10:21:01.345Z,26.57
2023-06-28T10:23:28.083Z,26.71
2023-06-28T10:25:56.225Z,26.78
2023-06-28T10:28:23.247Z,26.84
2023-06-28T10:30:51.257Z,26.91
2023-06-28T10:33:18.745Z,27.01
2023-06-28T10:35:46.031Z,26.90
2023-06-28T10:38:13.652Z,26.97
2023-06-28T10:40:40.591Z,27.03
2023-06-28T10:43:07.393Z,27.06
2023-06-28T10:45:38.937Z,27.24
2023-06-28T10:48:05.821Z,27.27
2023-06-28T10:50:43.264Z,27.42
2023-06-28T10:53:30.349Z,27.60
2023-06-28T10:56:13.909Z,27.66
2023-06-28T10:58:45.346Z,27.81
2023-06-28T11:01:14.274Z,27.95
2023-06-28T11:03:43.174Z,27.78
2023-06-28T11:06:12.120Z,27.76
2023-06-28T11:08:40.250Z,27.80
2023-06-28T11:11:09.033Z,27.88
2023-06-28T11:13:43.441Z,27.85
2023-06-28T11:16:17.233Z,27.82
2023-06-28T11:18:44.121Z,27.90
2023-06-28T11:21:16.517Z,27.99
2023-06-28T11:23:45.878Z,27.77
2023-06-28T11:26:17.890Z,27.79
2023-06-28T11:28:52.373Z,27.85
2023-06-28T11:31:26.360Z,27.84
2023-06-28T11:33:57.912Z,27.86
2023-06-28T11:36:25.981Z,27.77
2023-06-28T11:38:53.232Z,27.77
2023-06-28T11:41:20.032Z,27.90
2023-06-28T11:43:47.828Z,28.12
2023-06-28T11:46:23.564Z,28.27
2023-06-28T11:48:51.869Z,28.24
2023-06-28T11:51:18.530Z,28.17
2023-06-28T11:53:50.310Z,28.00
2023-06-28T11:56:17.168Z,27.77
2023-06-28T11:58:44.088Z,27.48
2023-06-28T12:01:21.589Z,27.23
2023-06-28T12:03:48.457Z,27.05
2023-06-28T12:06:15.204Z,26.91
2023-06-28T12:08:42.385Z,26.92
2023-06-28T12:11:10.262Z,27.08
2023-06-28T12:13:37.122Z,27.30
2023-06-28T12:16:20.101Z,27.37
2023-06-28T12:18:58.436Z,27.39
2023-06-28T12:21:27.026Z,27.53
2023-06-28T12:23:54.271Z,27.73
2023-06-28T12:26:25.751Z,27.90
2023-06-28T12:28:52.511Z,28.12
2023-06-28T12:31:19.255Z,28.22
2023-06-28T12:33:53.409Z,28.37
2023-06-28T12:36:20.438Z,28.60
2023-06-28T12:38:47.350Z,28.66
2023-06-28T12:41:15.349Z,28.51
2023-06-28T12:43:43.318Z,28.23
2023-06-28T12:46:11.801Z,28.01
2023-06-28T12:48:38.734Z,28.03
2023-06-28T12:51:05.397Z,28.06
2023-06-28T12:53:34.741Z,28.08
2023-06-28T12:56:01.418Z,28.33
2023-06-28T12:58:28.055Z,28.77
2023-06-28T13:00:54.672Z,29.19
2023-06-28T13:03:23.198Z,29.36
2023-06-28T13:05:50.117Z,29.10
2023-06-28T13:08:16.801Z,29.07
2023-06-28T13:10:43.542Z,29.16
2023-06-28T13:13:10.377Z,29.08
2023-06-28T13:15:37.731Z,28.77
2023-06-28T13:18:04.986Z,28.67
2023-06-28T13:20:31.641Z,28.53
2023-06-28T13:22:58.273Z,28.37
2023-06-28T13:25:27.390Z,28.26
2023-06-28T13:27:54.028Z,28.19
2023-06-28T13:30:21.968Z,28.14
2023-06-28T13:32:48.726Z,28.12
2023-06-28T13:35:15.451Z,28.18
2023-06-28T13:37:42.813Z,28.49
2023-06-28T13:40:09.840Z,28.88
2023-06-28T13:42:36.462Z,29.06
2023-06-28T13:45:03.214Z,29.32
2023-06-28T13:47:29.815Z,29.70
2023-06-28T13:49:57.198Z,29.94
2023-06-28T13:52:23.774Z,29.94
2023-06-28T13:54:50.430Z,29.80
2023-06-28T13:57:17.062Z,30.03
2023-06-28T13:59:43.732Z,30.27
2023-06-28T14:02:10.426Z,30.56
2023-06-28T14:04:37.061Z,30.68
2023-06-28T14:07:03.876Z,30.71
2023-06-28T14:09:30.566Z,30.91
2023-06-28T14:11:57.622Z,31.13
2023-06-28T14:14:25.349Z,31.13
2023-06-28T14:16:51.988Z,31.58
2023-06-28T14:19:18.703Z,31.71
2023-06-28T14:21:45.263Z,32.01
2023-06-28T14:24:13.329Z,32.66
2023-06-28T14:26:40.009Z,32.83
2023-06-28T14:29:07.289Z,33.00
2023-06-28T14:31:34.050Z,33.48
2023-06-28T14:34:00.674Z,33.66
2023-06-28T14:36:27.288Z,33.73
2023-06-28T14:38:53.904Z,33.29
2023-06-28T14:41:20.504Z,32.93
2023-06-28T14:43:47.386Z,32.82
2023-06-28T14:46:15.240Z,33.08
2023-06-28T14:48:42.034Z,33.49
2023-06-28T14:51:08.623Z,33.99
2023-06-28T14:53:37.463Z,34.32
2023-06-28T14:56:05.693Z,33.82
2023-06-28T14:58:32.590Z,33.44
2023-06-28T15:00:59.164Z,33.45
2023-06-28T15:03:25.893Z,33.77
2023-06-28T15:05:52.602Z,34.03
2023-06-28T15:08:19.211Z,34.57
2023-06-28T15:10:45.861Z,35.19
2023-06-28T15:13:12.414Z,35.46
2023-06-28T15:15:39.091Z,34.89
2023-06-28T15:18:05.794Z,34.01
2023-06-28T15:20:40.247Z,33.25
2023-06-28T15:23:10.544Z,32.64
2023-06-28T15:25:37.379Z,32.29
2023-06-28T15:28:04.429Z,32.84
2023-06-28T15:30:31.038Z,34.07
2023-06-28T15:32:57.754Z,34.86
2023-06-28T15:35:24.387Z,35.34
2023-06-28T15:37:51.154Z,35.80
2023-06-28T15:40:17.748Z,35.17
2023-06-28T15:42:44.371Z,35.27
2023-06-28T15:45:11.436Z,35.70
2023-06-28T15:47:38.386Z,36.05
2023-06-28T15:50:05.531Z,35.51
2023-06-28T15:52:32.163Z,35.68
2023-06-28T15:55:01.193Z,36.52
2023-06-28T15:57:28.045Z,36.95
2023-06-28T15:59:54.863Z,37.51
2023-06-28T16:02:22.150Z,37.99
2023-06-28T16:04:48.931Z,38.48
2023-06-28T16:07:16.528Z,38.25
2023-06-28T16:09:43.124Z,38.39
2023-06-28T16:12:09.890Z,38.68
2023-06-28T16:14:36.852Z,38.97
2023-06-28T16:17:04.468Z,39.02
2023-06-28T16:19:31.510Z,39.03
2023-06-28T16:21:58.231Z,38.81
2023-06-28T16:24:25.086Z,39.03
2023-06-28T16:26:51.654Z,39.22
2023-06-28T16:29:18.248Z,39.30
2023-06-28T16:31:44.901Z,39.58
2023-06-28T16:34:11.551Z,39.75
2023-06-28T16:36:42.225Z,39.52
2023-06-28T16:39:09.672Z,39.10
2023-06-28T16:41:36.543Z,38.82
2023-06-28T16:44:03.215Z,38.99
2023-06-28T16:46:29.848Z,39.20
2023-06-28T16:48:56.472Z,38.77
2023-06-28T16:51:23.132Z,37.72
2023-06-28T16:53:49.795Z,36.84
2023-06-28T16:56:16.840Z,36.15
2023-06-28T16:58:43.477Z,35.84
2023-06-28T17:01:10.159Z,36.17
2023-06-28T17:03:42.138Z,35.91
2023-06-28T17:06:12.640Z,35.23
2023-06-28T17:08:39.275Z,34.48
2023-06-28T17:11:05.882Z,33.92
2023-06-28T17:13:32.524Z,33.25
2023-06-28T17:16:00.404Z,32.69
2023-06-28T17:18:27.071Z,32.16
2023-06-28T17:20:54.179Z,31.79
2023-06-28T17:23:22.649Z,31.52
2023-06-28T17:25:49.561Z,31.22
2023-06-28T17:28:16.320Z,30.90
2023-06-28T17:30:43.261Z,30.63
2023-06-28T17:33:10.189Z,30.34
2023-06-28T17:35:36.917Z,30.19
2023-06-28T17:38:03.590Z,30.01
2023-06-28T17:40:30.258Z,29.88
2023-06-28T17:42:56.906Z,29.67
2023-06-28T17:45:23.465Z,29.53
2023-06-28T17:47:50.146Z,29.45
2023-06-28T17:50:16.818Z,29.38
2023-06-28T17:52:43.497Z,29.31
2023-06-28T17:55:10.377Z,29.14
2023-06-28T17:57:37.012Z,28.92
2023-06-28T18:00:05.554Z,28.77
2023-06-28T18:02:32.377Z,28.65
2023-06-28T18:04:58.957Z,28.51
2023-06-28T18:07:25.753Z,28.37
2023-06-28T18:09:52.886Z,28.24
2023-06-28T18:12:19.546Z,28.07
2023-06-28T18:14:46.104Z,28.00
2023-06-28T18:17:12.743Z,28.03
2023-06-28T18:19:40.420Z,28.04
2023-06-28T18:22:07.172Z,27.96
2023-06-28T18:24:35.095Z,27.94
2023-06-28T18:27:01.712Z,27.92
2023-06-28T18:29:28.437Z,27.88
2023-06-28T18:31:55.045Z,27.88
2023-06-28T18:34:21.693Z,27.89
2023-06-28T18:36:48.257Z,27.90
2023-06-28T18:39:18.820Z,27.94
2023-06-28T18:41:45.704Z,27.94
2023-06-28T18:44:12.314Z,27.95
2023-06-28T18:46:39.193Z,27.93
2023-06-28T18:49:05.812Z,27.82
2023-06-28T18:51:36.062Z,27.74
2023-06-28T18:54:03.837Z,27.61
2023-06-28T18:56:31.575Z,27.56
2023-06-28T18:58:58.700Z,27.49
2023-06-28T19:01:25.360Z,27.35
2023-06-28T19:03:52.055Z,27.24
2023-06-28T19:06:18.737Z,27.09
2023-06-28T19:08:45.279Z,26.99
2023-06-28T19:11:12.174Z,26.92
2023-06-28T19:13:40.393Z,26.86
2023-06-28T19:16:07.048Z,26.82
2023-06-28T19:18:34.599Z,26.74
2023-06-28T19:21:02.663Z,26.66
2023-06-28T19:23:29.758Z,26.56
2023-06-28T19:25:56.463Z,26.49
2023-06-28T19:28:23.009Z,26.41
2023-06-28T19:30:49.868Z,26.31
2023-06-28T19:33:16.979Z,26.22
2023-06-28T19:35:44.583Z,26.14
2023-06-28T19:38:11.353Z,26.03
2023-06-28T19:40:37.958Z,25.92
2023-06-28T19:43:04.623Z,25.77
2023-06-28T19:45:31.629Z,25.64
2023-06-28T19:47:58.449Z,25.56
2023-06-28T19:50:26.037Z,25.51
2023-06-28T19:52:52.715Z,25.47
2023-06-28T19:55:19.323Z,25.41
2023-06-28T19:57:46.067Z,25.30
2023-06-28T20:00:14.040Z,25.16
2023-06-28T20:02:42.180Z,25.09
2023-06-28T20:05:09.456Z,25.06
2023-06-28T20:07:36.186Z,24.99
2023-06-28T20:10:03.586Z,24.96
2023-06-28T20:12:30.221Z,24.94
2023-06-28T20:14:56.945Z,24.86
2023-06-28T20:17:23.531Z,24.76
2023-06-28T20:19:50.137Z,24.64
2023-06-28T20:22:16.769Z,24.53
2023-06-28T20:24:43.356Z,24.42
2023-06-28T20:27:10.652Z,24.32
2023-06-28T20:29:37.312Z,24.22
2023-06-28T20:32:04.363Z,24.13
2023-06-28T20:34:31.093Z,24.05
2023-06-28T20:36:57.913Z,23.97
2023-06-28T20:39:24.579Z,23.91
2023-06-28T20:41:51.480Z,23.84
2023-06-28T20:44:18.214Z,23.78
2023-06-28T20:46:45.022Z,23.72
2023-06-28T20:49:12.637Z,23.66
2023-06-28T20:51:39.283Z,23.63
2023-06-28T20:54:05.865Z,23.58
2023-06-28T20:56:32.495Z,23.54
2023-06-28T20:58:59.251Z,23.47
2023-06-28T21:01:27.866Z,23.40
2023-06-28T21:03:55.443Z,23.36
2023-06-28T21:06:22.119Z,23.35
2023-06-28T21:08:48.691Z,23.35
2023-06-28T21:11:16.581Z,23.33
2023-06-28T21:13:43.459Z,23.31
2023-06-28T21:16:10.123Z,23.30
2023-06-28T21:18:37.082Z,23.30
2023-06-28T21:21:03.847Z,23.30
2023-06-28T21:23:30.493Z,23.26
2023-06-28T21:25:57.190Z,23.21
2023-06-28T21:28:23.818Z,23.14
2023-06-28T21:30:50.368Z,23.09
2023-06-28T21:33:16.896Z,23.04
2023-06-28T21:35:43.790Z,22.98
2023-06-28T21:38:10.682Z,22.93
2023-06-28T21:40:37.380Z,22.87
2023-06-28T21:43:03.945Z,22.80
2023-06-28T21:45:30.529Z,22.75
2023-06-28T21:47:57.176Z,22.70
2023-06-28T21:50:24.139Z,22.67
2023-06-28T21:52:50.886Z,22.61
2023-06-28T21:55:17.461Z,22.55
2023-06-28T21:57:44.092Z,22.50
2023-06-28T22:00:28.591Z,22.42
2023-06-28T22:02:56.196Z,22.38
2023-06-28T22:05:23.644Z,22.32
2023-06-28T22:07:52.472Z,22.24
2023-06-28T22:10:20.817Z,22.20
2023-06-28T22:12:48.451Z,22.13
2023-06-28T22:15:16.964Z,22.06
2023-06-28T22:17:43.708Z,21.99
2023-06-28T22:20:10.653Z,21.94
2023-06-28T22:22:37.444Z,21.92
2023-06-28T22:25:05.288Z,21.85
2023-06-28T22:27:31.913Z,21.78
2023-06-28T22:29:58.935Z,21.74
2023-06-28T22:32:25.540Z,21.69
2023-06-28T22:34:52.124Z,21.66
2023-06-28T22:37:18.695Z,21.65
2023-06-28T22:39:45.305Z,21.61
2023-06-28T22:42:11.966Z,21.54
2023-06-28T22:44:38.545Z,21.50
2023-06-28T22:47:05.234Z,21.46
2023-06-28T22:49:33.207Z,21.43
2023-06-28T22:52:00.290Z,21.37
2023-06-28T22:54:28.088Z,21.33
2023-06-28T22:56:55.049Z,21.29
2023-06-28T22:59:24.752Z,21.25
2023-06-28T23:01:51.999Z,21.23
2023-06-28T23:04:19.121Z,21.21
2023-06-28T23:06:45.747Z,21.18
2023-06-28T23:09:12.404Z,21.19
2023-06-28T23:11:38.980Z,21.19
2023-06-28T23:14:05.957Z,21.19
2023-06-28T23:16:34.672Z,21.19
2023-06-28T23:19:03.712Z,21.19
2023-06-28T23:21:34.650Z,21.16
2023-06-28T23:24:03.413Z,21.15
2023-06-28T23:26:30.939Z,21.15
2023-06-28T23:28:58.278Z,21.14
2023-06-28T23:31:25.656Z,21.13
2023-06-28T23:33:52.895Z,21.12
2023-06-28T23:36:19.611Z,21.11
2023-06-28T23:38:46.422Z,21.10
2023-06-28T23:41:13.333Z,21.11
2023-06-28T23:43:42.701Z,21.11
2023-06-28T23:46:13.166Z,21.11
2023-06-28T23:48:41.568Z,21.09
2023-06-28T23:51:09.332Z,21.05
2023-06-28T23:53:40.296Z,21.02
2023-06-28T23:56:08.572Z,20.98
2023-06-28T23:58:36.368Z,20.95
